Frugy — FVQF — position and weather

sailwx.info

Track history (hours):
 
Tides and Currents Weather Stations Pressure Air Temp Water Temp Dewpoint Dewpoint Depression Visibility Wind Speed Wind Dir Waves Ship Positions

Frugy

Last reported at 2018-Jun-18 07:58 UTC. Time now 2018-Jun-22 07:42 UTC.
Position N 47°50' W 004°09'.

Length 16 m.

Type: Fishing. MMSI: 228218000.

Date/timePositionNaut miles runAvg speedWind from/ knotsBaromVisibWave heightAir tempDewpointWater temp
2018-Jun-18 07:58N 47°50' W 004°09'1 0.0
2018-Jun-16 06:44N 47°50' W 004°10'5 1.0
2018-Jun-16 01:33N 47°49' W 004°03'3 8.1
2018-Jun-16 01:10N 47°50' W 003°59'1 8.5
2018-Jun-16 01:00N 47°51' W 003°57'2 1.5
2018-Jun-15 23:58N 47°52' W 003°55'4 8.3
2018-Jun-15 23:28N 47°48' W 003°55'4 8.5
2018-Jun-15 23:00N 47°44' W 003°55'4 8.3
2018-Jun-15 22:28N 47°39' W 003°54'27 1.7
2018-Jun-15 06:40N 47°15' W 004°10'2 3.4
2018-Jun-15 05:56N 47°17' W 004°07'2 3.5
2018-Jun-15 05:27N 47°18' W 004°06'2 3.4
2018-Jun-15 04:59N 47°19' W 004°04'21 6.5
2018-Jun-15 01:48N 47°39' W 003°54'23 2.7
2018-Jun-14 17:21N 47°17' W 004°04'1 0.1
2018-Jun-14 07:04N 47°18' W 004°05'1 2.9
2018-Jun-14 06:44N 47°18' W 004°03'2 1.1
2018-Jun-14 05:13N 47°18' W 004°06'1 3.3
2018-Jun-14 04:53N 47°19' W 004°04'1 3.3
2018-Jun-14 04:27N 47°20' W 004°03'2 3.5
2018-Jun-14 04:00N 47°21' W 004°02'4 4.9
2018-Jun-14 03:15N 47°25' W 003°60'2 8.4
2018-Jun-14 03:00N 47°27' W 003°59'5 8.2
2018-Jun-14 02:21N 47°32' W 003°57'9 1.8
2018-Jun-13 21:22N 47°40' W 003°51'4 8.2
2018-Jun-13 20:54N 47°36' W 003°49'4 8.1
2018-Jun-13 20:26N 47°33' W 003°47'4 8.1
2018-Jun-13 20:00N 47°30' W 003°45'4 8.1
2018-Jun-13 19:29N 47°26' W 003°43'6 7.9
2018-Jun-13 18:46N 47°21' W 003°39'15 3.1
2018-Jun-13 13:46N 47°07' W 003°28'7 3.1
2018-Jun-13 11:25N 46°60' W 003°28'1 1.7
2018-Jun-13 10:42N 47°01' W 003°28'2 2.0
2018-Jun-13 09:33N 47°01' W 003°31'0 3.8
2018-Jun-13 09:30N 47°01' W 003°31'1 0.9
2018-Jun-13 07:53N 47°02' W 003°29'0 0.1
2018-Jun-13 06:06N 47°01' W 003°29'1 0.5
2018-Jun-13 03:18N 47°01' W 003°27'8 2.2
2018-Jun-12 23:48N 46°56' W 003°34'1 3.4
2018-Jun-12 23:28N 46°55' W 003°34'2 2.9
2018-Jun-12 22:57N 46°54' W 003°31'2 3.2
2018-Jun-12 22:27N 46°54' W 003°29'1 2.7
2018-Jun-12 21:59N 46°56' W 003°29'1 2.3
2018-Jun-12 21:19N 46°55' W 003°31'8 0.6
2018-Jun-12 06:44N 47°03' W 003°29'1 3.4
2018-Jun-12 06:30N 47°04' W 003°29'10 7.0
2018-Jun-12 05:00N 47°14' W 003°35'5 8.1
2018-Jun-12 04:27N 47°18' W 003°37'4 8.2
2018-Jun-12 03:58N 47°22' W 003°40'4 8.1
2018-Jun-12 03:29N 47°25' W 003°42'4 8.1
2018-Jun-12 02:58N 47°29' W 003°44'4 8.2
2018-Jun-12 02:27N 47°33' W 003°47'4 8.2
2018-Jun-12 01:58N 47°37' W 003°49'9 8.5
2018-Jun-12 00:58N 47°45' W 003°53'7 4.0
2018-Jun-11 23:16N 47°51' W 003°56'4 8.2
2018-Jun-11 22:45N 47°47' W 003°55'3 8.4
2018-Jun-11 22:20N 47°44' W 003°54'5 8.3
2018-Jun-11 21:45N 47°39' W 003°51'2 8.1
2018-Jun-11 21:29N 47°37' W 003°49'1 2.8
2018-Jun-11 20:58N 47°36' W 003°50'1 1.9
2018-Jun-11 20:28N 47°35' W 003°51'2 3.1
2018-Jun-11 19:59N 47°34' W 003°49'3 1.7
2018-Jun-11 18:07N 47°32' W 003°53'0 1.0
2018-Jun-11 17:59N 47°33' W 003°53'1 2.8
2018-Jun-11 17:30N 47°33' W 003°52'1 1.4
2018-Jun-11 16:35N 47°33' W 003°54'0 3.3
2018-Jun-11 16:29N 47°33' W 003°53'2 3.3
2018-Jun-11 15:54N 47°32' W 003°51'2 2.8
2018-Jun-11 15:18N 47°34' W 003°50'3 1.2
2018-Jun-11 13:03N 47°33' W 003°53'0 3.3
2018-Jun-11 13:01N 47°33' W 003°53'2 3.0
2018-Jun-11 12:30N 47°33' W 003°51'1 1.7
2018-Jun-11 11:53N 47°34' W 003°52'2 2.2
2018-Jun-11 11:11N 47°33' W 003°50'0 1.2
2018-Jun-11 10:59N 47°33' W 003°51'1 1.5
2018-Jun-11 10:30N 47°33' W 003°52'1 1.4
2018-Jun-11 10:00N 47°34' W 003°52'2 3.0
2018-Jun-11 09:29N 47°33' W 003°53'2 3.4
2018-Jun-11 08:55N 47°32' W 003°51'5 1.6
2018-Jun-11 05:33N 47°36' W 003°55'1 0.6
2018-Jun-11 04:43N 47°37' W 003°55'0 0.9
2018-Jun-11 04:16N 47°37' W 003°55'1 3.6
2018-Jun-11 03:59N 47°37' W 003°53'3 3.1
2018-Jun-11 02:57N 47°40' W 003°52'15 7.6
2018-Jun-11 00:58N 47°50' W 004°09'1 0.0
2018-Jun-09 00:53N 47°50' W 004°10'5 5.8
2018-Jun-08 23:59N 47°49' W 004°03'4 7.5
2018-Jun-08 23:29N 47°51' W 003°57'1 1.2
2018-Jun-08 22:20N 47°51' W 003°56'3 8.8
2018-Jun-08 22:00N 47°48' W 003°55'5 8.9
2018-Jun-08 21:24N 47°43' W 003°53'4 8.9
2018-Jun-08 20:58N 47°40' W 003°51'  
Track history (hours):
 
Tides and Currents Weather Stations Pressure Air Temp Water Temp Dewpoint Dewpoint Depression Visibility Wind Speed Wind Dir Waves Ship Positions

Frugy

Last reported at 2018-Jun-18 07:58 UTC. Time now 2018-Jun-22 07:42 UTC.
Position N 47°50' W 004°09'.

Length 16 m.

Type: Fishing. MMSI: 228218000.

Date/timePositionNaut miles runAvg speedWind from/ knotsBaromVisibWave heightAir tempDewpointWater temp
2018-Jun-18 07:58N 47°50' W 004°09'1 0.0
2018-Jun-16 06:44N 47°50' W 004°10'5 1.0
2018-Jun-16 01:33N 47°49' W 004°03'3 8.1
2018-Jun-16 01:10N 47°50' W 003°59'1 8.5
2018-Jun-16 01:00N 47°51' W 003°57'2 1.5
2018-Jun-15 23:58N 47°52' W 003°55'4 8.3
2018-Jun-15 23:28N 47°48' W 003°55'4 8.5
2018-Jun-15 23:00N 47°44' W 003°55'4 8.3
2018-Jun-15 22:28N 47°39' W 003°54'27 1.7
2018-Jun-15 06:40N 47°15' W 004°10'2 3.4
2018-Jun-15 05:56N 47°17' W 004°07'2 3.5
2018-Jun-15 05:27N 47°18' W 004°06'2 3.4
2018-Jun-15 04:59N 47°19' W 004°04'21 6.5
2018-Jun-15 01:48N 47°39' W 003°54'23 2.7
2018-Jun-14 17:21N 47°17' W 004°04'1 0.1
2018-Jun-14 07:04N 47°18' W 004°05'1 2.9
2018-Jun-14 06:44N 47°18' W 004°03'2 1.1
2018-Jun-14 05:13N 47°18' W 004°06'1 3.3
2018-Jun-14 04:53N 47°19' W 004°04'1 3.3
2018-Jun-14 04:27N 47°20' W 004°03'2 3.5
2018-Jun-14 04:00N 47°21' W 004°02'4 4.9
2018-Jun-14 03:15N 47°25' W 003°60'2 8.4
2018-Jun-14 03:00N 47°27' W 003°59'5 8.2
2018-Jun-14 02:21N 47°32' W 003°57'9 1.8
2018-Jun-13 21:22N 47°40' W 003°51'4 8.2
2018-Jun-13 20:54N 47°36' W 003°49'4 8.1
2018-Jun-13 20:26N 47°33' W 003°47'4 8.1
2018-Jun-13 20:00N 47°30' W 003°45'4 8.1
2018-Jun-13 19:29N 47°26' W 003°43'6 7.9
2018-Jun-13 18:46N 47°21' W 003°39'15 3.1
2018-Jun-13 13:46N 47°07' W 003°28'7 3.1
2018-Jun-13 11:25N 46°60' W 003°28'1 1.7
2018-Jun-13 10:42N 47°01' W 003°28'2 2.0
2018-Jun-13 09:33N 47°01' W 003°31'0 3.8
2018-Jun-13 09:30N 47°01' W 003°31'1 0.9
2018-Jun-13 07:53N 47°02' W 003°29'0 0.1
2018-Jun-13 06:06N 47°01' W 003°29'1 0.5
2018-Jun-13 03:18N 47°01' W 003°27'8 2.2
2018-Jun-12 23:48N 46°56' W 003°34'1 3.4
2018-Jun-12 23:28N 46°55' W 003°34'2 2.9
2018-Jun-12 22:57N 46°54' W 003°31'2 3.2
2018-Jun-12 22:27N 46°54' W 003°29'1 2.7
2018-Jun-12 21:59N 46°56' W 003°29'1 2.3
2018-Jun-12 21:19N 46°55' W 003°31'8 0.6
2018-Jun-12 06:44N 47°03' W 003°29'1 3.4
2018-Jun-12 06:30N 47°04' W 003°29'10 7.0
2018-Jun-12 05:00N 47°14' W 003°35'5 8.1
2018-Jun-12 04:27N 47°18' W 003°37'4 8.2
2018-Jun-12 03:58N 47°22' W 003°40'4 8.1
2018-Jun-12 03:29N 47°25' W 003°42'4 8.1
2018-Jun-12 02:58N 47°29' W 003°44'4 8.2
2018-Jun-12 02:27N 47°33' W 003°47'4 8.2
2018-Jun-12 01:58N 47°37' W 003°49'9 8.5
2018-Jun-12 00:58N 47°45' W 003°53'7 4.0
2018-Jun-11 23:16N 47°51' W 003°56'4 8.2
2018-Jun-11 22:45N 47°47' W 003°55'3 8.4
2018-Jun-11 22:20N 47°44' W 003°54'5 8.3
2018-Jun-11 21:45N 47°39' W 003°51'2 8.1
2018-Jun-11 21:29N 47°37' W 003°49'1 2.8
2018-Jun-11 20:58N 47°36' W 003°50'1 1.9
2018-Jun-11 20:28N 47°35' W 003°51'2 3.1
2018-Jun-11 19:59N 47°34' W 003°49'3 1.7
2018-Jun-11 18:07N 47°32' W 003°53'0 1.0
2018-Jun-11 17:59N 47°33' W 003°53'1 2.8
2018-Jun-11 17:30N 47°33' W 003°52'1 1.4
2018-Jun-11 16:35N 47°33' W 003°54'0 3.3
2018-Jun-11 16:29N 47°33' W 003°53'2 3.3
2018-Jun-11 15:54N 47°32' W 003°51'2 2.8
2018-Jun-11 15:18N 47°34' W 003°50'3 1.2
2018-Jun-11 13:03N 47°33' W 003°53'0 3.3
2018-Jun-11 13:01N 47°33' W 003°53'2 3.0
2018-Jun-11 12:30N 47°33' W 003°51'1 1.7
2018-Jun-11 11:53N 47°34' W 003°52'2 2.2
2018-Jun-11 11:11N 47°33' W 003°50'0 1.2
2018-Jun-11 10:59N 47°33' W 003°51'1 1.5
2018-Jun-11 10:30N 47°33' W 003°52'1 1.4
2018-Jun-11 10:00N 47°34' W 003°52'2 3.0
2018-Jun-11 09:29N 47°33' W 003°53'2 3.4
2018-Jun-11 08:55N 47°32' W 003°51'5 1.6
2018-Jun-11 05:33N 47°36' W 003°55'1 0.6
2018-Jun-11 04:43N 47°37' W 003°55'0 0.9
2018-Jun-11 04:16N 47°37' W 003°55'1 3.6
2018-Jun-11 03:59N 47°37' W 003°53'3 3.1
2018-Jun-11 02:57N 47°40' W 003°52'15 7.6
2018-Jun-11 00:58N 47°50' W 004°09'1 0.0
2018-Jun-09 00:53N 47°50' W 004°10'5 5.8
2018-Jun-08 23:59N 47°49' W 004°03'4 7.5
2018-Jun-08 23:29N 47°51' W 003°57'1 1.2
2018-Jun-08 22:20N 47°51' W 003°56'3 8.8
2018-Jun-08 22:00N 47°48' W 003°55'5 8.9
2018-Jun-08 21:24N 47°43' W 003°53'4 8.9
2018-Jun-08 20:58N 47°40' W 003°51'  

Dump ship's entire track history